sensor_id;sensor_type;location;lat;lon;timestamp;temperature;humidity
4207;DHT22;2117;47.972;7.830;2023-12-07T00:00:36;2.50;99.90
4207;DHT22;2117;47.972;7.830;2023-12-07T00:03:01;2.50;99.90
4207;DHT22;2117;47.972;7.830;2023-12-07T00:05:27;2.50;99.90
4207;DHT22;2117;47.972;7.830;2023-12-07T00:07:52;2.50;99.90
4207;DHT22;2117;47.972;7.830;2023-12-07T00:10:18;2.50;99.90
4207;DHT22;2117;47.972;7.830;2023-12-07T00:12:43;2.60;99.90
4207;DHT22;2117;47.972;7.830;2023-12-07T00:15:09;2.60;99.90
4207;DHT22;2117;47.972;7.830;2023-12-07T00:17:35;2.60;99.90
4207;DHT22;2117;47.972;7.830;2023-12-07T00:20:00;2.60;99.90
4207;DHT22;2117;47.972;7.830;2023-12-07T00:22:26;2.50;99.90
4207;DHT22;2117;47.972;7.830;2023-12-07T00:24:53;2.50;99.90
4207;DHT22;2117;47.972;7.830;2023-12-07T00:27:19;2.50;99.90
4207;DHT22;2117;47.972;7.830;2023-12-07T00:29:44;2.50;99.90
4207;DHT22;2117;47.972;7.830;2023-12-07T00:32:10;2.50;99.90
4207;DHT22;2117;47.972;7.830;2023-12-07T00:34:36;2.50;99.90
4207;DHT22;2117;47.972;7.830;2023-12-07T00:37:01;2.50;99.90
4207;DHT22;2117;47.972;7.830;2023-12-07T00:39:28;2.50;99.90
4207;DHT22;2117;47.972;7.830;2023-12-07T00:41:54;2.50;99.90
4207;DHT22;2117;47.972;7.830;2023-12-07T00:44:19;2.40;99.90
4207;DHT22;2117;47.972;7.830;2023-12-07T00:46:45;2.40;99.90
4207;DHT22;2117;47.972;7.830;2023-12-07T00:49:10;2.40;99.90
4207;DHT22;2117;47.972;7.830;2023-12-07T00:51:36;2.40;99.90
4207;DHT22;2117;47.972;7.830;2023-12-07T00:54:01;2.40;99.90
4207;DHT22;2117;47.972;7.830;2023-12-07T00:56:27;2.40;99.90
4207;DHT22;2117;47.972;7.830;2023-12-07T00:58:52;2.40;99.90
4207;DHT22;2117;47.972;7.830;2023-12-07T01:01:18;2.40;99.90
4207;DHT22;2117;47.972;7.830;2023-12-07T01:03:44;2.30;99.90
4207;DHT22;2117;47.972;7.830;2023-12-07T01:06:09;2.30;99.90
4207;DHT22;2117;47.972;7.830;2023-12-07T01:08:37;2.20;99.90
4207;DHT22;2117;47.972;7.830;2023-12-07T01:11:03;2.20;99.90
4207;DHT22;2117;47.972;7.830;2023-12-07T01:13:29;2.20;99.90
4207;DHT22;2117;47.972;7.830;2023-12-07T01:15:56;2.20;99.90
4207;DHT22;2117;47.972;7.830;2023-12-07T01:18:21;2.10;99.90
4207;DHT22;2117;47.972;7.830;2023-12-07T01:20:47;2.10;99.90
4207;DHT22;2117;47.972;7.830;2023-12-07T01:23:13;2.10;99.90
4207;DHT22;2117;47.972;7.830;2023-12-07T01:25:40;2.00;99.90
4207;DHT22;2117;47.972;7.830;2023-12-07T01:28:06;2.00;99.90
4207;DHT22;2117;47.972;7.830;2023-12-07T01:30:31;2.00;99.90
4207;DHT22;2117;47.972;7.830;2023-12-07T01:32:57;2.00;99.90
4207;DHT22;2117;47.972;7.830;2023-12-07T01:35:23;1.90;99.90
4207;DHT22;2117;47.972;7.830;2023-12-07T01:37:48;1.90;99.90
4207;DHT22;2117;47.972;7.830;2023-12-07T01:40:14;1.90;99.90
4207;DHT22;2117;47.972;7.830;2023-12-07T01:42:40;1.90;99.90
4207;DHT22;2117;47.972;7.830;2023-12-07T01:45:06;1.80;99.90
4207;DHT22;2117;47.972;7.830;2023-12-07T01:47:33;1.80;99.90
4207;DHT22;2117;47.972;7.830;2023-12-07T01:50:00;1.70;99.90
4207;DHT22;2117;47.972;7.830;2023-12-07T01:52:29;1.70;99.90
4207;DHT22;2117;47.972;7.830;2023-12-07T01:54:56;1.60;99.90
4207;DHT22;2117;47.972;7.830;2023-12-07T01:57:22;1.70;99.90
4207;DHT22;2117;47.972;7.830;2023-12-07T01:59:48;1.60;99.90
4207;DHT22;2117;47.972;7.830;2023-12-07T02:02:14;1.60;99.90
4207;DHT22;2117;47.972;7.830;2023-12-07T02:04:40;1.60;99.90
4207;DHT22;2117;47.972;7.830;2023-12-07T02:07:06;1.50;99.90
4207;DHT22;2117;47.972;7.830;2023-12-07T02:09:32;1.40;99.90
4207;DHT22;2117;47.972;7.830;2023-12-07T02:11:57;1.40;99.90
4207;DHT22;2117;47.972;7.830;2023-12-07T02:14:23;1.40;99.90
4207;DHT22;2117;47.972;7.830;2023-12-07T02:16:54;1.40;99.90
4207;DHT22;2117;47.972;7.830;2023-12-07T02:19:43;1.30;99.90
4207;DHT22;2117;47.972;7.830;2023-12-07T02:22:18;1.30;99.90
4207;DHT22;2117;47.972;7.830;2023-12-07T02:24:56;1.20;99.90
4207;DHT22;2117;47.972;7.830;2023-12-07T02:27:54;1.20;99.90
4207;DHT22;2117;47.972;7.830;2023-12-07T02:30:19;1.10;99.90
4207;DHT22;2117;47.972;7.830;2023-12-07T02:32:45;1.10;99.90
4207;DHT22;2117;47.972;7.830;2023-12-07T02:35:11;1.10;99.90
4207;DHT22;2117;47.972;7.830;2023-12-07T02:37:45;1.10;99.90
4207;DHT22;2117;47.972;7.830;2023-12-07T02:40:14;1.00;99.90
4207;DHT22;2117;47.972;7.830;2023-12-07T02:42:41;1.00;99.90
4207;DHT22;2117;47.972;7.830;2023-12-07T02:45:09;1.00;99.90
4207;DHT22;2117;47.972;7.830;2023-12-07T02:47:35;0.90;99.90
4207;DHT22;2117;47.972;7.830;2023-12-07T02:50:05;0.90;99.90
4207;DHT22;2117;47.972;7.830;2023-12-07T02:52:31;0.80;99.90
4207;DHT22;2117;47.972;7.830;2023-12-07T02:54:56;0.80;99.90
4207;DHT22;2117;47.972;7.830;2023-12-07T02:57:22;0.70;99.90
4207;DHT22;2117;47.972;7.830;2023-12-07T02:59:48;0.70;99.90
4207;DHT22;2117;47.972;7.830;2023-12-07T03:02:13;0.70;99.90
4207;DHT22;2117;47.972;7.830;2023-12-07T03:04:39;0.70;99.90
4207;DHT22;2117;47.972;7.830;2023-12-07T03:07:04;0.70;99.90
4207;DHT22;2117;47.972;7.830;2023-12-07T03:09:30;0.70;99.90
4207;DHT22;2117;47.972;7.830;2023-12-07T03:11:55;0.70;99.90
4207;DHT22;2117;47.972;7.830;2023-12-07T03:14:21;0.60;99.90
4207;DHT22;2117;47.972;7.830;2023-12-07T03:16:46;0.60;99.90
4207;DHT22;2117;47.972;7.830;2023-12-07T03:19:12;0.50;99.90
4207;DHT22;2117;47.972;7.830;2023-12-07T03:21:41;0.50;99.90
4207;DHT22;2117;47.972;7.830;2023-12-07T03:24:08;0.50;99.90
4207;DHT22;2117;47.972;7.830;2023-12-07T03:26:34;0.40;99.90
4207;DHT22;2117;47.972;7.830;2023-12-07T03:28:59;0.40;99.90
4207;DHT22;2117;47.972;7.830;2023-12-07T03:31:25;0.40;99.90
4207;DHT22;2117;47.972;7.830;2023-12-07T03:33:51;0.40;99.90
4207;DHT22;2117;47.972;7.830;2023-12-07T03:36:16;0.40;99.90
4207;DHT22;2117;47.972;7.830;2023-12-07T03:38:42;0.30;99.90
4207;DHT22;2117;47.972;7.830;2023-12-07T03:41:08;0.30;99.90
4207;DHT22;2117;47.972;7.830;2023-12-07T03:43:34;0.20;99.90
4207;DHT22;2117;47.972;7.830;2023-12-07T03:45:59;0.20;99.90
4207;DHT22;2117;47.972;7.830;2023-12-07T03:48:25;0.20;99.90
4207;DHT22;2117;47.972;7.830;2023-12-07T03:50:50;0.20;99.90
4207;DHT22;2117;47.972;7.830;2023-12-07T03:53:16;0.20;99.90
4207;DHT22;2117;47.972;7.830;2023-12-07T03:55:41;0.20;99.90
4207;DHT22;2117;47.972;7.830;2023-12-07T03:58:07;0.10;99.90
4207;DHT22;2117;47.972;7.830;2023-12-07T04:00:33;0.10;99.90
4207;DHT22;2117;47.972;7.830;2023-12-07T04:02:58;0.10;99.90
4207;DHT22;2117;47.972;7.830;2023-12-07T04:05:24;0.10;99.90
4207;DHT22;2117;47.972;7.830;2023-12-07T04:07:49;0.10;99.90
4207;DHT22;2117;47.972;7.830;2023-12-07T04:10:15;0.10;99.90
4207;DHT22;2117;47.972;7.830;2023-12-07T04:12:41;0.10;99.90
4207;DHT22;2117;47.972;7.830;2023-12-07T04:15:07;0.10;99.90
4207;DHT22;2117;47.972;7.830;2023-12-07T04:17:33;0.10;99.90
4207;DHT22;2117;47.972;7.830;2023-12-07T04:19:58;0.00;99.90
4207;DHT22;2117;47.972;7.830;2023-12-07T04:22:24;0.00;99.90
4207;DHT22;2117;47.972;7.830;2023-12-07T04:24:49;0.00;99.90
4207;DHT22;2117;47.972;7.830;2023-12-07T04:27:15;0.00;99.90
4207;DHT22;2117;47.972;7.830;2023-12-07T04:29:41;0.00;99.90
4207;DHT22;2117;47.972;7.830;2023-12-07T04:32:07;0.00;99.90
4207;DHT22;2117;47.972;7.830;2023-12-07T04:34:33;-0.10;99.90
4207;DHT22;2117;47.972;7.830;2023-12-07T04:36:59;-0.10;99.90
4207;DHT22;2117;47.972;7.830;2023-12-07T04:39:24;0.00;99.90
4207;DHT22;2117;47.972;7.830;2023-12-07T04:41:50;0.00;99.90
4207;DHT22;2117;47.972;7.830;2023-12-07T04:44:16;-0.10;99.90
4207;DHT22;2117;47.972;7.830;2023-12-07T04:46:42;-0.10;99.90
4207;DHT22;2117;47.972;7.830;2023-12-07T04:49:11;-0.10;99.90
4207;DHT22;2117;47.972;7.830;2023-12-07T04:51:36;-0.10;99.90
4207;DHT22;2117;47.972;7.830;2023-12-07T04:54:02;-0.10;99.90
4207;DHT22;2117;47.972;7.830;2023-12-07T04:56:28;-0.10;99.90
4207;DHT22;2117;47.972;7.830;2023-12-07T04:58:53;-0.20;99.90
4207;DHT22;2117;47.972;7.830;2023-12-07T05:01:19;-0.20;99.90
4207;DHT22;2117;47.972;7.830;2023-12-07T05:03:45;-0.20;99.90
4207;DHT22;2117;47.972;7.830;2023-12-07T05:06:11;-0.20;99.90
4207;DHT22;2117;47.972;7.830;2023-12-07T05:08:38;-0.20;99.90
4207;DHT22;2117;47.972;7.830;2023-12-07T05:11:04;-0.20;99.90
4207;DHT22;2117;47.972;7.830;2023-12-07T05:13:30;-0.20;99.90
4207;DHT22;2117;47.972;7.830;2023-12-07T05:15:56;-0.30;99.90
4207;DHT22;2117;47.972;7.830;2023-12-07T05:18:22;-0.30;99.90
4207;DHT22;2117;47.972;7.830;2023-12-07T05:20:47;-0.30;99.90
4207;DHT22;2117;47.972;7.830;2023-12-07T05:23:13;-0.30;99.90
4207;DHT22;2117;47.972;7.830;2023-12-07T05:25:39;-0.20;99.90
4207;DHT22;2117;47.972;7.830;2023-12-07T05:28:04;-0.30;99.90
4207;DHT22;2117;47.972;7.830;2023-12-07T05:30:30;-0.30;99.90
4207;DHT22;2117;47.972;7.830;2023-12-07T05:32:56;-0.30;99.90
4207;DHT22;2117;47.972;7.830;2023-12-07T05:35:21;-0.30;99.90
4207;DHT22;2117;47.972;7.830;2023-12-07T05:37:47;-0.30;99.90
4207;DHT22;2117;47.972;7.830;2023-12-07T05:40:12;-0.30;99.90
4207;DHT22;2117;47.972;7.830;2023-12-07T05:42:38;-0.30;99.90
4207;DHT22;2117;47.972;7.830;2023-12-07T05:45:04;-0.30;99.90
4207;DHT22;2117;47.972;7.830;2023-12-07T05:47:31;-0.30;99.90
4207;DHT22;2117;47.972;7.830;2023-12-07T05:49:57;-0.40;99.90
4207;DHT22;2117;47.972;7.830;2023-12-07T05:52:25;-0.40;99.90
4207;DHT22;2117;47.972;7.830;2023-12-07T05:54:50;-0.30;99.90
4207;DHT22;2117;47.972;7.830;2023-12-07T05:57:16;-0.40;99.90
4207;DHT22;2117;47.972;7.830;2023-12-07T05:59:42;-0.40;99.90
4207;DHT22;2117;47.972;7.830;2023-12-07T06:02:08;-0.40;99.90
4207;DHT22;2117;47.972;7.830;2023-12-07T06:04:34;-0.40;99.90
4207;DHT22;2117;47.972;7.830;2023-12-07T06:06:59;-0.40;99.90
4207;DHT22;2117;47.972;7.830;2023-12-07T06:09:25;-0.50;99.90
4207;DHT22;2117;47.972;7.830;2023-12-07T06:11:51;-0.40;99.90
4207;DHT22;2117;47.972;7.830;2023-12-07T06:14:16;-0.40;99.90
4207;DHT22;2117;47.972;7.830;2023-12-07T06:16:42;-0.40;99.90
4207;DHT22;2117;47.972;7.830;2023-12-07T06:19:08;-0.40;99.90
4207;DHT22;2117;47.972;7.830;2023-12-07T06:21:33;-0.40;99.90
4207;DHT22;2117;47.972;7.830;2023-12-07T06:23:59;-0.40;99.90
4207;DHT22;2117;47.972;7.830;2023-12-07T06:26:24;-0.50;99.90
4207;DHT22;2117;47.972;7.830;2023-12-07T06:28:50;-0.50;99.90
4207;DHT22;2117;47.972;7.830;2023-12-07T06:31:15;-0.50;99.90
4207;DHT22;2117;47.972;7.830;2023-12-07T06:33:45;-0.50;99.90
4207;DHT22;2117;47.972;7.830;2023-12-07T06:36:11;-0.50;99.90
4207;DHT22;2117;47.972;7.830;2023-12-07T06:38:36;-0.50;99.90
4207;DHT22;2117;47.972;7.830;2023-12-07T06:41:03;-0.60;99.90
4207;DHT22;2117;47.972;7.830;2023-12-07T06:43:29;-0.60;99.90
4207;DHT22;2117;47.972;7.830;2023-12-07T06:45:55;-0.60;99.90
4207;DHT22;2117;47.972;7.830;2023-12-07T06:48:20;-0.60;99.90
4207;DHT22;2117;47.972;7.830;2023-12-07T06:50:46;-0.60;99.90
4207;DHT22;2117;47.972;7.830;2023-12-07T06:53:11;-0.60;99.90
4207;DHT22;2117;47.972;7.830;2023-12-07T06:55:37;-0.60;99.90
4207;DHT22;2117;47.972;7.830;2023-12-07T06:58:02;-0.60;99.90
4207;DHT22;2117;47.972;7.830;2023-12-07T07:00:28;-0.60;99.90
4207;DHT22;2117;47.972;7.830;2023-12-07T07:02:53;-0.60;99.90
4207;DHT22;2117;47.972;7.830;2023-12-07T07:05:19;-0.50;99.90
4207;DHT22;2117;47.972;7.830;2023-12-07T07:07:45;-0.50;99.90
4207;DHT22;2117;47.972;7.830;2023-12-07T07:10:11;-0.50;99.90
4207;DHT22;2117;47.972;7.830;2023-12-07T07:12:38;-0.50;99.90
4207;DHT22;2117;47.972;7.830;2023-12-07T07:15:07;-0.50;99.90
4207;DHT22;2117;47.972;7.830;2023-12-07T07:17:32;-0.60;99.90
4207;DHT22;2117;47.972;7.830;2023-12-07T07:19:58;-0.60;99.90
4207;DHT22;2117;47.972;7.830;2023-12-07T07:22:23;-0.60;99.90
4207;DHT22;2117;47.972;7.830;2023-12-07T07:24:49;-0.60;99.90
4207;DHT22;2117;47.972;7.830;2023-12-07T07:27:15;-0.60;99.90
4207;DHT22;2117;47.972;7.830;2023-12-07T07:29:40;-0.60;99.90
4207;DHT22;2117;47.972;7.830;2023-12-07T07:32:06;-0.60;99.90
4207;DHT22;2117;47.972;7.830;2023-12-07T07:34:31;-0.60;99.90
4207;DHT22;2117;47.972;7.830;2023-12-07T07:36:57;-0.60;99.90
4207;DHT22;2117;47.972;7.830;2023-12-07T07:39:22;-0.60;99.90
4207;DHT22;2117;47.972;7.830;2023-12-07T07:41:48;-0.60;99.90
4207;DHT22;2117;47.972;7.830;2023-12-07T07:44:14;-0.60;99.90
4207;DHT22;2117;47.972;7.830;2023-12-07T07:46:42;-0.60;99.90
4207;DHT22;2117;47.972;7.830;2023-12-07T07:49:08;-0.60;99.90
4207;DHT22;2117;47.972;7.830;2023-12-07T07:51:33;-0.60;99.90
4207;DHT22;2117;47.972;7.830;2023-12-07T07:53:59;-0.50;99.90
4207;DHT22;2117;47.972;7.830;2023-12-07T07:56:25;-0.50;99.90
4207;DHT22;2117;47.972;7.830;2023-12-07T07:58:50;-0.50;99.90
4207;DHT22;2117;47.972;7.830;2023-12-07T08:01:16;-0.40;99.90
4207;DHT22;2117;47.972;7.830;2023-12-07T08:03:41;-0.40;99.90
4207;DHT22;2117;47.972;7.830;2023-12-07T08:06:07;-0.30;99.90
4207;DHT22;2117;47.972;7.830;2023-12-07T08:08:33;-0.30;99.90
4207;DHT22;2117;47.972;7.830;2023-12-07T08:10:59;-0.30;99.90
4207;DHT22;2117;47.972;7.830;2023-12-07T08:13:26;-0.20;99.90
4207;DHT22;2117;47.972;7.830;2023-12-07T08:15:53;-0.20;99.90
4207;DHT22;2117;47.972;7.830;2023-12-07T08:18:19;-0.20;99.90
4207;DHT22;2117;47.972;7.830;2023-12-07T08:20:44;-0.20;99.90
4207;DHT22;2117;47.972;7.830;2023-12-07T08:23:10;-0.20;99.90
4207;DHT22;2117;47.972;7.830;2023-12-07T08:25:38;-0.20;99.90
4207;DHT22;2117;47.972;7.830;2023-12-07T08:28:04;-0.20;99.90
4207;DHT22;2117;47.972;7.830;2023-12-07T08:30:29;-0.10;99.90
4207;DHT22;2117;47.972;7.830;2023-12-07T08:32:55;-0.10;99.90
4207;DHT22;2117;47.972;7.830;2023-12-07T08:35:21;-0.10;99.90
4207;DHT22;2117;47.972;7.830;2023-12-07T08:37:47;0.00;99.90
4207;DHT22;2117;47.972;7.830;2023-12-07T08:40:13;0.00;99.90
4207;DHT22;2117;47.972;7.830;2023-12-07T08:42:40;0.10;99.90
4207;DHT22;2117;47.972;7.830;2023-12-07T08:45:06;0.20;99.90
4207;DHT22;2117;47.972;7.830;2023-12-07T08:47:34;0.30;99.90
4207;DHT22;2117;47.972;7.830;2023-12-07T08:49:59;0.40;99.90
4207;DHT22;2117;47.972;7.830;2023-12-07T08:52:25;0.50;99.90
4207;DHT22;2117;47.972;7.830;2023-12-07T08:54:50;0.60;99.90
4207;DHT22;2117;47.972;7.830;2023-12-07T08:57:18;0.70;99.90
4207;DHT22;2117;47.972;7.830;2023-12-07T08:59:43;0.70;99.90
4207;DHT22;2117;47.972;7.830;2023-12-07T09:02:09;0.80;99.90
4207;DHT22;2117;47.972;7.830;2023-12-07T09:04:34;0.80;99.90
4207;DHT22;2117;47.972;7.830;2023-12-07T09:07:00;0.80;99.90
4207;DHT22;2117;47.972;7.830;2023-12-07T09:09:25;0.80;99.90
4207;DHT22;2117;47.972;7.830;2023-12-07T09:11:51;0.80;99.90
4207;DHT22;2117;47.972;7.830;2023-12-07T09:14:16;1.00;99.90
4207;DHT22;2117;47.972;7.830;2023-12-07T09:16:45;1.00;99.90
4207;DHT22;2117;47.972;7.830;2023-12-07T09:19:12;1.00;99.90
4207;DHT22;2117;47.972;7.830;2023-12-07T09:21:42;1.10;99.90
4207;DHT22;2117;47.972;7.830;2023-12-07T09:24:07;1.20;99.90
4207;DHT22;2117;47.972;7.830;2023-12-07T09:26:33;1.30;99.90
4207;DHT22;2117;47.972;7.830;2023-12-07T09:28:58;1.30;99.90
4207;DHT22;2117;47.972;7.830;2023-12-07T09:31:24;1.40;99.90
4207;DHT22;2117;47.972;7.830;2023-12-07T09:33:50;1.40;99.90
4207;DHT22;2117;47.972;7.830;2023-12-07T09:36:18;1.40;99.90
4207;DHT22;2117;47.972;7.830;2023-12-07T09:38:44;1.50;99.90
4207;DHT22;2117;47.972;7.830;2023-12-07T09:41:10;1.60;99.90
4207;DHT22;2117;47.972;7.830;2023-12-07T09:43:36;1.60;99.90
4207;DHT22;2117;47.972;7.830;2023-12-07T09:46:02;1.60;99.90
4207;DHT22;2117;47.972;7.830;2023-12-07T09:48:28;1.70;99.90
4207;DHT22;2117;47.972;7.830;2023-12-07T09:50:55;1.70;99.90
4207;DHT22;2117;47.972;7.830;2023-12-07T09:53:22;1.80;99.90
4207;DHT22;2117;47.972;7.830;2023-12-07T09:55:48;1.80;99.90
4207;DHT22;2117;47.972;7.830;2023-12-07T09:58:13;1.90;99.90
4207;DHT22;2117;47.972;7.830;2023-12-07T10:00:39;2.00;99.90
4207;DHT22;2117;47.972;7.830;2023-12-07T10:03:05;2.00;99.90
4207;DHT22;2117;47.972;7.830;2023-12-07T10:05:34;2.10;99.90
4207;DHT22;2117;47.972;7.830;2023-12-07T10:08:25;2.10;99.90
4207;DHT22;2117;47.972;7.830;2023-12-07T10:11:02;2.30;99.90
4207;DHT22;2117;47.972;7.830;2023-12-07T10:13:30;2.30;99.90
4207;DHT22;2117;47.972;7.830;2023-12-07T10:16:06;2.40;99.90
4207;DHT22;2117;47.972;7.830;2023-12-07T10:18:32;2.40;99.90
4207;DHT22;2117;47.972;7.830;2023-12-07T10:20:57;2.40;99.90
4207;DHT22;2117;47.972;7.830;2023-12-07T10:23:23;2.40;99.90
4207;DHT22;2117;47.972;7.830;2023-12-07T10:25:50;2.40;99.90
4207;DHT22;2117;47.972;7.830;2023-12-07T10:28:16;2.50;99.90
4207;DHT22;2117;47.972;7.830;2023-12-07T10:30:43;2.60;99.90
4207;DHT22;2117;47.972;7.830;2023-12-07T10:33:09;2.70;99.90
4207;DHT22;2117;47.972;7.830;2023-12-07T10:35:44;2.80;99.90
4207;DHT22;2117;47.972;7.830;2023-12-07T10:38:10;2.80;99.90
4207;DHT22;2117;47.972;7.830;2023-12-07T10:40:35;2.80;99.90
4207;DHT22;2117;47.972;7.830;2023-12-07T10:43:05;2.80;99.90
4207;DHT22;2117;47.972;7.830;2023-12-07T10:45:31;2.90;99.90
4207;DHT22;2117;47.972;7.830;2023-12-07T10:48:02;3.00;99.90
4207;DHT22;2117;47.972;7.830;2023-12-07T10:50:32;3.10;99.90
4207;DHT22;2117;47.972;7.830;2023-12-07T10:53:08;3.10;99.90
4207;DHT22;2117;47.972;7.830;2023-12-07T10:55:56;3.20;99.90
4207;DHT22;2117;47.972;7.830;2023-12-07T10:58:22;3.20;99.90
4207;DHT22;2117;47.972;7.830;2023-12-07T11:00:52;3.20;99.90
4207;DHT22;2117;47.972;7.830;2023-12-07T11:03:18;3.20;99.90
4207;DHT22;2117;47.972;7.830;2023-12-07T11:05:50;3.20;99.90
4207;DHT22;2117;47.972;7.830;2023-12-07T11:08:21;3.20;99.90
4207;DHT22;2117;47.972;7.830;2023-12-07T11:11:04;3.20;99.90
4207;DHT22;2117;47.972;7.830;2023-12-07T11:13:35;3.20;99.90
4207;DHT22;2117;47.972;7.830;2023-12-07T11:16:01;3.20;99.90
4207;DHT22;2117;47.972;7.830;2023-12-07T11:18:28;3.30;99.90
4207;DHT22;2117;47.972;7.830;2023-12-07T11:20:55;3.30;99.90
4207;DHT22;2117;47.972;7.830;2023-12-07T11:23:21;3.40;99.90
4207;DHT22;2117;47.972;7.830;2023-12-07T11:25:48;3.40;99.90
4207;DHT22;2117;47.972;7.830;2023-12-07T11:28:14;3.50;99.90
4207;DHT22;2117;47.972;7.830;2023-12-07T11:30:45;3.50;99.90
4207;DHT22;2117;47.972;7.830;2023-12-07T11:33:11;3.70;99.90
4207;DHT22;2117;47.972;7.830;2023-12-07T11:36:03;3.70;99.90
4207;DHT22;2117;47.972;7.830;2023-12-07T11:38:29;3.80;99.90
4207;DHT22;2117;47.972;7.830;2023-12-07T11:40:55;3.80;99.90
4207;DHT22;2117;47.972;7.830;2023-12-07T11:46:01;3.90;99.90
4207;DHT22;2117;47.972;7.830;2023-12-07T11:48:27;3.90;99.90
4207;DHT22;2117;47.972;7.830;2023-12-07T11:51:02;3.90;99.90
4207;DHT22;2117;47.972;7.830;2023-12-07T11:53:33;4.00;99.90
4207;DHT22;2117;47.972;7.830;2023-12-07T11:56:00;4.20;99.90
4207;DHT22;2117;47.972;7.830;2023-12-07T11:58:27;4.30;99.90
4207;DHT22;2117;47.972;7.830;2023-12-07T12:00:54;4.30;99.90
4207;DHT22;2117;47.972;7.830;2023-12-07T12:03:20;4.30;99.90
4207;DHT22;2117;47.972;7.830;2023-12-07T12:05:46;4.40;99.90
4207;DHT22;2117;47.972;7.830;2023-12-07T12:08:12;4.50;99.90
4207;DHT22;2117;47.972;7.830;2023-12-07T12:10:39;4.60;99.90
4207;DHT22;2117;47.972;7.830;2023-12-07T12:13:05;4.70;99.90
4207;DHT22;2117;47.972;7.830;2023-12-07T12:15:31;4.90;99.90
4207;DHT22;2117;47.972;7.830;2023-12-07T12:17:57;5.10;99.90
4207;DHT22;2117;47.972;7.830;2023-12-07T12:20:24;5.10;99.90
4207;DHT22;2117;47.972;7.830;2023-12-07T12:22:50;5.00;99.90
4207;DHT22;2117;47.972;7.830;2023-12-07T12:25:40;4.80;99.90
4207;DHT22;2117;47.972;7.830;2023-12-07T12:28:05;4.70;99.90
4207;DHT22;2117;47.972;7.830;2023-12-07T12:30:32;4.50;99.90
4207;DHT22;2117;47.972;7.830;2023-12-07T12:32:58;4.40;99.90
4207;DHT22;2117;47.972;7.830;2023-12-07T12:35:28;4.20;99.90
4207;DHT22;2117;47.972;7.830;2023-12-07T12:37:54;4.00;99.90
4207;DHT22;2117;47.972;7.830;2023-12-07T12:40:23;3.70;99.90
4207;DHT22;2117;47.972;7.830;2023-12-07T12:42:50;3.50;99.90
4207;DHT22;2117;47.972;7.830;2023-12-07T12:45:17;3.30;99.90
4207;DHT22;2117;47.972;7.830;2023-12-07T12:47:44;3.10;99.90
4207;DHT22;2117;47.972;7.830;2023-12-07T12:50:11;3.00;99.90
4207;DHT22;2117;47.972;7.830;2023-12-07T12:52:37;3.00;99.90
4207;DHT22;2117;47.972;7.830;2023-12-07T12:55:09;3.00;99.90
4207;DHT22;2117;47.972;7.830;2023-12-07T12:57:36;3.00;99.90
4207;DHT22;2117;47.972;7.830;2023-12-07T13:00:02;2.80;99.90
4207;DHT22;2117;47.972;7.830;2023-12-07T13:02:28;2.80;99.90
4207;DHT22;2117;47.972;7.830;2023-12-07T13:04:54;2.90;99.90
4207;DHT22;2117;47.972;7.830;2023-12-07T13:07:21;2.90;99.90
4207;DHT22;2117;47.972;7.830;2023-12-07T13:09:47;3.00;99.90
4207;DHT22;2117;47.972;7.830;2023-12-07T13:12:12;3.00;99.90
4207;DHT22;2117;47.972;7.830;2023-12-07T13:21:22;3.00;99.90
4207;DHT22;2117;47.972;7.830;2023-12-07T13:23:48;2.90;99.90
4207;DHT22;2117;47.972;7.830;2023-12-07T13:26:13;2.90;99.90
4207;DHT22;2117;47.972;7.830;2023-12-07T13:28:39;3.00;99.90
4207;DHT22;2117;47.972;7.830;2023-12-07T13:31:04;3.10;99.90
4207;DHT22;2117;47.972;7.830;2023-12-07T13:33:30;3.20;99.90
4207;DHT22;2117;47.972;7.830;2023-12-07T13:35:56;3.40;99.90
4207;DHT22;2117;47.972;7.830;2023-12-07T13:38:22;3.50;99.90
4207;DHT22;2117;47.972;7.830;2023-12-07T13:40:49;3.50;99.90
4207;DHT22;2117;47.972;7.830;2023-12-07T13:43:14;3.50;99.90
4207;DHT22;2117;47.972;7.830;2023-12-07T13:45:41;3.60;99.90
4207;DHT22;2117;47.972;7.830;2023-12-07T13:48:06;3.60;99.90
4207;DHT22;2117;47.972;7.830;2023-12-07T13:50:32;3.50;99.90
4207;DHT22;2117;47.972;7.830;2023-12-07T13:52:57;3.50;99.90
4207;DHT22;2117;47.972;7.830;2023-12-07T13:55:24;3.40;99.90
4207;DHT22;2117;47.972;7.830;2023-12-07T13:57:49;3.40;99.90
4207;DHT22;2117;47.972;7.830;2023-12-07T14:00:18;3.40;99.90
4207;DHT22;2117;47.972;7.830;2023-12-07T14:02:45;3.30;99.90
4207;DHT22;2117;47.972;7.830;2023-12-07T14:05:11;3.30;99.90
4207;DHT22;2117;47.972;7.830;2023-12-07T14:07:36;3.30;99.90
4207;DHT22;2117;47.972;7.830;2023-12-07T14:10:02;3.20;99.90
4207;DHT22;2117;47.972;7.830;2023-12-07T14:12:28;3.20;99.90
4207;DHT22;2117;47.972;7.830;2023-12-07T14:14:54;3.10;99.90
4207;DHT22;2117;47.972;7.830;2023-12-07T14:17:23;3.10;99.90
4207;DHT22;2117;47.972;7.830;2023-12-07T14:19:48;3.10;99.90
4207;DHT22;2117;47.972;7.830;2023-12-07T14:22:14;3.10;99.90
4207;DHT22;2117;47.972;7.830;2023-12-07T14:24:39;3.10;99.90
4207;DHT22;2117;47.972;7.830;2023-12-07T14:27:06;3.00;99.90
4207;DHT22;2117;47.972;7.830;2023-12-07T14:29:32;3.00;99.90
4207;DHT22;2117;47.972;7.830;2023-12-07T14:31:58;3.00;99.90
4207;DHT22;2117;47.972;7.830;2023-12-07T14:34:25;3.00;99.90
4207;DHT22;2117;47.972;7.830;2023-12-07T14:36:53;3.00;99.90
4207;DHT22;2117;47.972;7.830;2023-12-07T14:39:19;3.00;99.90
4207;DHT22;2117;47.972;7.830;2023-12-07T14:41:49;3.00;99.90
4207;DHT22;2117;47.972;7.830;2023-12-07T14:44:17;3.00;99.90
4207;DHT22;2117;47.972;7.830;2023-12-07T14:46:43;2.90;99.90
4207;DHT22;2117;47.972;7.830;2023-12-07T14:49:13;2.90;99.90
4207;DHT22;2117;47.972;7.830;2023-12-07T14:51:39;2.90;99.90
4207;DHT22;2117;47.972;7.830;2023-12-07T14:54:08;2.90;99.90
4207;DHT22;2117;47.972;7.830;2023-12-07T14:56:35;2.80;99.90
4207;DHT22;2117;47.972;7.830;2023-12-07T14:59:01;2.80;99.90
4207;DHT22;2117;47.972;7.830;2023-12-07T15:01:27;2.80;99.90
4207;DHT22;2117;47.972;7.830;2023-12-07T15:03:53;2.80;99.90
4207;DHT22;2117;47.972;7.830;2023-12-07T15:06:19;2.80;99.90
4207;DHT22;2117;47.972;7.830;2023-12-07T15:08:44;2.70;99.90
4207;DHT22;2117;47.972;7.830;2023-12-07T15:11:10;2.70;99.90
4207;DHT22;2117;47.972;7.830;2023-12-07T15:13:36;2.70;99.90
4207;DHT22;2117;47.972;7.830;2023-12-07T15:16:02;2.70;99.90
4207;DHT22;2117;47.972;7.830;2023-12-07T15:18:29;2.70;99.90
4207;DHT22;2117;47.972;7.830;2023-12-07T15:20:56;2.70;99.90
4207;DHT22;2117;47.972;7.830;2023-12-07T15:23:22;2.60;99.90
4207;DHT22;2117;47.972;7.830;2023-12-07T15:25:48;2.60;99.90
4207;DHT22;2117;47.972;7.830;2023-12-07T15:28:13;2.60;99.90
4207;DHT22;2117;47.972;7.830;2023-12-07T15:30:40;2.60;99.90
4207;DHT22;2117;47.972;7.830;2023-12-07T15:33:05;2.60;99.90
4207;DHT22;2117;47.972;7.830;2023-12-07T15:35:32;2.50;99.90
4207;DHT22;2117;47.972;7.830;2023-12-07T15:37:57;2.40;99.90
4207;DHT22;2117;47.972;7.830;2023-12-07T15:40:23;2.40;99.90
4207;DHT22;2117;47.972;7.830;2023-12-07T15:42:49;2.50;99.90
4207;DHT22;2117;47.972;7.830;2023-12-07T15:45:15;2.40;99.90
4207;DHT22;2117;47.972;7.830;2023-12-07T15:47:40;2.40;99.90
4207;DHT22;2117;47.972;7.830;2023-12-07T15:50:06;2.30;99.90
4207;DHT22;2117;47.972;7.830;2023-12-07T15:52:32;2.30;99.90
4207;DHT22;2117;47.972;7.830;2023-12-07T15:54:58;2.30;99.90
4207;DHT22;2117;47.972;7.830;2023-12-07T15:57:24;2.30;99.90
4207;DHT22;2117;47.972;7.830;2023-12-07T15:59:50;2.20;99.90
4207;DHT22;2117;47.972;7.830;2023-12-07T16:02:15;2.20;99.90
4207;DHT22;2117;47.972;7.830;2023-12-07T16:04:42;2.10;99.90
4207;DHT22;2117;47.972;7.830;2023-12-07T16:07:07;2.10;99.90
4207;DHT22;2117;47.972;7.830;2023-12-07T16:09:34;2.10;99.90
4207;DHT22;2117;47.972;7.830;2023-12-07T16:12:00;2.10;99.90
4207;DHT22;2117;47.972;7.830;2023-12-07T16:14:25;2.10;99.90
4207;DHT22;2117;47.972;7.830;2023-12-07T16:16:51;2.00;99.90
4207;DHT22;2117;47.972;7.830;2023-12-07T16:19:17;2.00;99.90